Twr-7 — TWR-7 — position and weather

sailwx.info

Track history (hours):
 
Tides and Currents Weather Stations Pressure Air Temp Water Temp Dewpoint Dewpoint Depression Visibility Wind Speed Wind Dir Waves Ship Positions

Twr-7

Last reported at 2017-Mar-27 23:33 UTC. Time now 2017-Apr-26 11:52 UTC.
Position N 47°44' W 122°29'.
Warning: this ship's position is 29 days out of date.

; draft 1.5 m.

Type: Military. MMSI: 369970258.

Date/timePositionNaut miles runAvg speedWind from/ knotsBaromVisibWave heightAir tempDewpointWater temp
2017-Mar-27 23:33N 47°44' W 122°29'9 6.6
2017-Mar-27 22:10N 47°51' W 122°38'813.4
2017-Mar-27 21:33N 47°44' W 122°45'0 0.0
2017-Mar-27 20:31N 47°44' W 122°45'  
2017-Mar-24 21:10N 47°53' W 122°36'1817.0
2017-Mar-24 20:08N 48°09' W 122°45'1517.4
2017-Mar-24 19:16N 48°21' W 122°60'1217.2
2017-Mar-24 18:34N 48°30' W 123°11'1817.8
2017-Mar-24 17:33N 48°47' W 123°20'1616.5
2017-Mar-24 16:33N 48°60' W 123°36'1414.0
2017-Mar-24 15:33N 49°09' W 123°52'1312.7
2017-Mar-24 14:33N 49°16' W 124°09'  
Track history (hours):
 
Tides and Currents Weather Stations Pressure Air Temp Water Temp Dewpoint Dewpoint Depression Visibility Wind Speed Wind Dir Waves Ship Positions

Twr-7

Last reported at 2017-Mar-27 23:33 UTC. Time now 2017-Apr-26 11:52 UTC.
Position N 47°44' W 122°29'.
Warning: this ship's position is 29 days out of date.

; draft 1.5 m.

Type: Military. MMSI: 369970258.

Date/timePositionNaut miles runAvg speedWind from/ knotsBaromVisibWave heightAir tempDewpointWater temp
2017-Mar-27 23:33N 47°44' W 122°29'9 6.6
2017-Mar-27 22:10N 47°51' W 122°38'813.4
2017-Mar-27 21:33N 47°44' W 122°45'0 0.0
2017-Mar-27 20:31N 47°44' W 122°45'  
2017-Mar-24 21:10N 47°53' W 122°36'1817.0
2017-Mar-24 20:08N 48°09' W 122°45'1517.4
2017-Mar-24 19:16N 48°21' W 122°60'1217.2
2017-Mar-24 18:34N 48°30' W 123°11'1817.8
2017-Mar-24 17:33N 48°47' W 123°20'1616.5
2017-Mar-24 16:33N 48°60' W 123°36'1414.0
2017-Mar-24 15:33N 49°09' W 123°52'1312.7
2017-Mar-24 14:33N 49°16' W 124°09'  

Dump ship's entire track history